Latest Coastal Weather Observations for Moorabbin Airport

IDV60701

Issued at 11:45 am EDT Saturday 25 October 2014 (issued every 10 minutes, with the page automatically refreshed every 10 minutes)

About coastal observations | Map of coastal stations | Coastal observations for VIC | Marine services | Other Formats
Station Details ID: 086077 Name: MOORABBIN AIRPORT Lat: -37.98 Lon: 145.10 Height: 12.1 m
Data from the previous 72 hours. | See also: Recent months at Moorabbin Airport
Date/Time
EDT
Temp

°C
Wind Pressure Rain
since 9am
mm
Weather Cloud Vis
km
Sea
Height
m
Swell
Dir
 
Speed
knots
Gust
knots
hPa Trend Height
m
Period
s
Dir
25/11:30am 15.4 SSW 6 9 1017.5 - 0.0 - Cloudy 10 - - - -
25/11:00am 15.2 SSW 7 10 1017.6 - 0.0 - Cloudy 10 - - - -
25/10:30am 14.7 S 10 12 1017.6 - 0.0 - Cloudy 10 - - - -
25/10:00am 14.7 S 10 12 1017.7 - 0.0 - Cloudy 10 - - - -
25/09:30am 14.7 S 9 11 1017.6 - 0.0 - Cloudy 10 - - - -
25/09:00am 14.8 SSE 6 9 1017.8 - 0.0 - Cloudy 10 - - - -
25/08:30am 14.4 SE 5 7 1017.8 - 0.0 - Partly cloudy 10 - - - -
25/08:00am 14.3 SE 4 5 1017.6 - 0.0 - Partly cloudy 10 - - - -
25/07:30am 14.2 SSE 5 7 1017.3 - 0.0 - Partly cloudy 10 - - - -
25/07:00am 14.1 SSW 5 7 1017.1 - 0.0 - Cloudy 10 - - - -
25/06:30am 14.1 SSW 6 9 1017.0 - 0.0 - Partly cloudy 10 - - - -
25/06:00am 14.0 SSW 7 8 1016.7 - 0.0 - Cloudy 10 - - - -
25/05:30am 14.1 S 4 5 1016.6 - 0.0 - Partly cloudy 10 - - - -
25/05:00am 14.0 S 4 6 1016.3 - 0.0 - Partly cloudy 10 - - - -
25/04:30am 14.2 SSW 5 6 1016.2 - 0.0 - Partly cloudy 10 - - - -
25/04:00am 14.2 SSW 6 8 1016.3 - 0.0 - Cloudy 10 - - - -
25/03:30am 14.1 WSW 6 8 1016.2 - 0.0 - Cloudy 10 - - - -
25/03:23am 14.1 W 6 9 1016.2 - 0.0 - Cloudy 10 - - - -
25/03:01am 13.8 WSW 7 9 1016.3 - 0.0 - Partly cloudy 9 - - - -
25/03:00am 13.8 WSW 7 9 1016.3 - 0.0 - Cloudy 8 - - - -
25/02:30am 13.6 S 7 9 1016.5 - 0.0 - Cloudy 3 - - - -
25/02:00am 13.9 SSW 9 11 1016.5 - 0.0 - Cloudy 4 - - - -
25/01:53am 14.3 SSW 8 11 1016.5 - 0.0 - Cloudy 5 - - - -
25/01:30am 14.7 SSW 8 11 1016.6 - 0.0 - Cloudy 9 - - - -
25/01:00am 14.9 SSW 8 11 1016.6 - 0.0 - Cloudy 8 - - - -
25/12:30am 15.1 SSW 6 8 1016.6 - 0.0 - Cloudy 10 - - - -
25/12:00am 15.2 S 6 8 1016.5 - 0.0 - Cloudy 10 - - - -
 
Date/Time
EDT
Temp

°C
Wind Pressure Rain
since 9am
mm
Weather Cloud Vis
km
Sea
Height
m
Swell
Dir
 
Speed
knots
Gust
knots
hPa Trend Height
m
Period
s
Dir
24/11:59pm 15.2 SSW 6 8 1016.5 - 0.0 - Cloudy 10 - - - -
24/11:30pm 15.2 S 7 9 1016.3 - 0.0 - Cloudy 10 - - - -
24/11:00pm 15.3 S 11 16 1016.4 - 0.0 - Partly cloudy 10 - - - -
24/10:30pm 15.1 SSW 10 14 1016.0 - 0.0 - - 10 - - - -
24/10:00pm 15.1 SSW 11 15 1015.6 - 0.0 - - 10 - - - -
24/09:30pm 15.3 SSW 11 16 1015.2 - 0.0 - Partly cloudy 10 - - - -
24/09:00pm 15.4 SSW 13 19 1014.3 - 0.0 - Mostly clear 10 - - - -
24/08:34pm 15.6 SSW 16 21 1013.6 - 0.0 - Partly cloudy 8 - - - -
24/08:30pm 15.6 SSW 16 20 1013.5 - 0.0 - Partly cloudy 7 - - - -
24/08:26pm 15.6 SSW 16 22 1013.4 - 0.0 - Partly cloudy 7 - - - -
24/08:01pm 15.6 SSW 13 19 1012.8 - 0.0 - Partly cloudy 5 - - - -
24/08:00pm 15.6 SSW 13 19 1012.7 - 0.0 - Partly cloudy 6 - - - -
24/07:57pm 15.7 SSW 13 22 1012.8 - 0.0 - Partly cloudy 6 - - - -
24/07:30pm 17.3 SSW 17 21 1011.8 - 0.0 - - 10 - - - -
24/07:00pm 19.1 SW 13 18 1011.3 - 0.0 - - 10 - - - -
24/06:30pm 22.2 SW 11 16 1010.5 - 0.0 - - 10 - - - -
24/06:00pm 24.2 SSW 11 14 1010.0 - 0.0 - - 10 - - - -
24/05:30pm 26.3 SSW 10 14 1009.7 - 0.0 - - 10 - - - -
24/05:00pm 27.1 SSW 7 9 1009.5 - 0.0 - - 10 - - - -
24/04:30pm 28.7 SW 5 8 1009.5 - 0.0 - - 10 - - - -
24/04:00pm 28.1 SW 8 12 1009.8 - 0.0 - - 10 - - - -
24/03:30pm 27.6 SW 8 12 1010.0 - 0.0 - - 10 - - - -
24/03:00pm 27.4 WSW 6 9 1010.0 - 0.0 - - 10 - - - -
24/02:30pm 25.9 SW 10 14 1010.4 - 0.0 - - 10 - - - -
24/02:00pm 26.6 WSW 7 11 1010.5 - 0.0 - - 10 - - - -
24/01:30pm 25.4 WSW 6 12 1010.7 - 0.0 - - 10 - - - -
24/01:00pm 22.3 SW 5 8 1011.0 - 0.0 - - 10 - - - -
24/12:30pm 22.2 SW 4 9 1011.1 - 0.0 - - 10 - - - -
24/12:00pm 20.1 SW 7 9 1011.4 - 0.0 - Mostly cloudy 10 - - - -
24/11:30am 19.6 SW 9 12 1011.6 - 0.0 - - 10 - - - -
24/11:00am 20.3 SSW 7 10 1011.5 - 0.0 - - 10 - - - -
24/10:30am 19.5 SSW 5 7 1011.6 - 0.0 - - 10 - - - -
24/10:00am 20.6 E 2 4 1011.7 - 0.0 - - 10 - - - -
24/09:30am 18.9 E 1 5 1011.7 - 0.0 - - 9 - - - -
24/09:00am 17.0 N 3 5 1012.2 - 0.0 - Mostly clear 8 - - - -
24/08:53am 16.8 N 4 5 1012.3 - 0.0 - Partly cloudy 8 - - - -
24/08:30am 15.7 N 5 6 1012.2 - 0.0 - Partly cloudy 7 - - - -
24/08:00am 14.8 N 6 8 1012.2 - 0.0 - Cloudy 6 - - - -
24/07:38am 15.0 N 5 6 1012.4 - 0.0 - Cloudy 6 - - - -
24/07:30am 14.8 N 5 6 1012.4 - 0.0 - Cloudy 6 - - - -
24/07:22am 14.5 N 3 5 1012.3 - 0.0 - Cloudy 5 - - - -
24/07:10am 13.9 CALM 0 0 1012.3 - 0.0 - Cloudy 6 - - - -
24/07:00am 13.3 CALM 0 0 1012.4 - 0.0 - Cloudy 5 - - - -
24/06:34am 12.8 CALM 0 0 1012.4 - 0.0 - Cloudy 5 - - - -
24/06:32am 12.7 CALM 0 0 1012.4 - 0.0 - Cloudy 6 - - - -
24/06:30am 12.5 CALM 0 0 1012.5 - 0.0 - Cloudy 8 - - - -
24/06:00am 12.5 CALM 0 0 1012.4 - 0.0 - Partly cloudy 1 - - - -
24/05:56am 12.5 CALM 0 0 1012.4 - 0.0 - Partly cloudy 2 - - - -
24/05:30am 12.8 N 3 4 1012.4 - 0.0 - - 5 - - - -
24/05:27am 13.2 N 3 4 1012.4 - 0.0 - - 5 - - - -
24/05:00am 13.0 NNW 3 5 1012.5 - 0.0 - - 8 - - - -
24/04:30am 13.1 N 4 5 1012.4 - 0.0 - - 10 - - - -
24/04:00am 13.7 NNW 4 5 1012.7 - 0.0 - - 10 - - - -
24/03:30am 13.9 N 3 4 1012.7 - 0.0 - - 10 - - - -
24/03:00am 13.8 ENE 5 6 1012.9 - 0.0 - Partly cloudy 10 - - - -
24/02:30am 12.9 NE 4 5 1013.5 - 0.0 - - 10 - - - -
24/02:00am 13.9 NE 2 3 1013.9 - 0.0 - - 10 - - - -
24/01:30am 14.3 NE 4 6 1014.1 - 0.0 - - 10 - - - -
24/01:00am 15.1 NE 5 5 1014.4 - 0.0 - - 10 - - - -
24/12:30am 15.4 ENE 5 8 1014.6 - 0.0 - - 10 - - - -
24/12:00am 15.5 ESE 8 12 1014.8 - 0.0 - - 10 - - - -
 
Date/Time
EDT
Temp

°C
Wind Pressure Rain
since 9am
mm
Weather Cloud Vis
km
Sea
Height
m
Swell
Dir
 
Speed
knots
Gust
knots
hPa Trend Height
m
Period
s
Dir
23/11:30pm 15.7 ESE 10 16 1014.9 - 0.0 - - 10 - - - -
23/11:00pm 15.9 ESE 12 15 1015.1 - 0.0 - - 10 - - - -
23/10:30pm 15.9 ESE 13 17 1015.2 - 0.0 - - 10 - - - -
23/10:00pm 16.2 ESE 14 19 1015.3 - 0.0 - - 10 - - - -
23/09:30pm 16.1 ESE 15 21 1015.2 - 0.0 - - 10 - - - -
23/09:00pm 16.1 ESE 17 22 1015.0 - 0.0 - - 10 - - - -
23/08:30pm 16.3 ESE 17 22 1014.9 - 0.0 - - 10 - - - -
23/08:00pm 16.4 ESE 18 23 1014.9 - 0.0 - - 10 - - - -
23/07:30pm 16.9 SE 20 26 1015.1 - 0.0 - - 10 - - - -
23/07:00pm 17.8 ESE 19 29 1015.0 - 0.0 - - 10 - - - -
23/06:30pm 18.6 SE 19 27 1015.1 - 0.0 - - 10 - - - -
23/06:00pm 19.4 SE 19 24 1015.1 - 0.0 - - 10 - - - -
23/05:30pm 20.0 ESE 20 25 1015.2 - 0.0 - - 10 - - - -
23/05:00pm 20.7 SE 18 25 1015.3 - 0.0 - - 10 - - - -
23/04:30pm 20.8 SE 17 23 1015.6 - 0.0 - Partly cloudy 10 - - - -
23/04:00pm 21.6 SE 17 23 1015.9 - 0.0 - Partly cloudy 10 - - - -
23/03:30pm 20.7 SE 15 22 1016.5 - 0.0 - Cloudy 10 - - - -
23/03:00pm 21.1 SE 14 19 1016.8 - 0.0 - Cloudy 10 - - - -
23/02:30pm 19.6 ESE 13 19 1017.4 - 0.0 - Cloudy 8 - - - -
23/02:00pm 19.2 ESE 11 17 1017.8 - 0.0 - Cloudy 8 - - - -
23/01:30pm 18.4 SE 9 13 1018.3 - 0.0 - Cloudy 10 - - - -
23/01:00pm 17.5 SE 9 11 1018.9 - 0.0 - Cloudy 10 - - - -
23/12:31pm 16.5 SE 10 13 1019.2 - 0.0 - Cloudy 10 - - - -
23/12:30pm 16.4 SE 11 13 1019.2 - 0.0 - Cloudy 10 - - - -
23/12:00pm 16.5 SE 7 10 1019.8 - 0.0 - Cloudy 10 - - - -
23/11:30am 15.9 SSE 6 10 1019.9 - 0.0 - Cloudy 10 - - - -
23/11:00am 16.4 SSE 8 11 1020.3 - 0.0 - Cloudy 10 - - - -
23/10:30am 15.6 ESE 7 9 1020.3 - 0.0 - Cloudy 10 - - - -
23/10:06am 15.5 ESE 7 8 1020.5 - 0.0 - Cloudy 10 - - - -
23/10:00am 15.6 E 6 8 1020.4 - 0.0 - Cloudy 10 - - - -
23/09:30am 15.3 ESE 7 9 1020.4 - 0.0 - Cloudy 10 - - - -
23/09:00am 15.2 ESE 7 9 1020.3 - 0.0 - Cloudy 10 - - - -
23/08:47am 15.1 SE 7 9 1020.4 - 0.0 - Partly cloudy 10 - - - -
23/08:30am 15.1 SE 7 9 1020.4 - 0.0 - Partly cloudy 10 - - - -
23/08:00am 15.0 SE 7 9 1020.1 - 0.0 - Cloudy 9 - - - -
23/07:30am 14.9 SSW 5 8 1020.1 - 0.0 - Cloudy 9 - - - -
23/07:00am 14.9 S 4 6 1019.8 - 0.0 - Cloudy 9 - - - -
23/06:30am 14.9 SSE 6 8 1019.4 - 0.0 - Cloudy 8 - - - -
23/06:00am 15.1 SSW 8 11 1019.2 - 0.0 - Cloudy 9 - - - -
23/05:30am 15.0 SSW 9 11 1018.7 - 0.0 - Partly cloudy 9 - - - -
23/05:00am 15.1 SW 7 10 1018.5 - 0.0 - Partly cloudy 8 - - - -
23/04:30am 15.1 SW 7 11 1018.3 - 0.0 - Partly cloudy 7 - - - -
23/04:00am 14.9 SW 8 11 1018.3 - 0.0 - Partly cloudy 7 - - - -
23/03:30am 14.8 SW 7 10 1018.6 - 0.0 - Cloudy 6 - - - -
23/03:00am 14.8 SW 8 11 1018.8 - 0.0 - Cloudy 7 - - - -
23/02:30am 14.8 SW 8 11 1019.0 - 0.0 - Cloudy 7 - - - -
23/02:00am 15.0 WSW 8 11 1019.1 - 0.0 - Cloudy 6 - - - -
23/01:30am 15.0 SW 11 16 1019.2 - 0.0 - Cloudy 6 - - - -
23/01:05am 15.3 WSW 8 12 1019.0 - 0.0 - Partly cloudy 6 - - - -
23/01:00am 15.2 WSW 8 12 1018.8 - 0.0 - Partly cloudy 6 - - - -
23/12:30am 15.2 CALM 0 0 1018.3 - 0.0 - Partly cloudy 6 - - - -
23/12:28am 15.3 CALM 0 3 1018.4 - 0.0 - Partly cloudy 6 - - - -
23/12:00am 15.3 SSW 13 20 1018.7 - 0.0 - Mostly cloudy 7 - - - -
 
Date/Time
EDT
Temp

°C
Wind Pressure Rain
since 9am
mm
Weather Cloud Vis
km
Sea
Height
m
Swell
Dir
 
Speed
knots
Gust
knots
hPa Trend Height
m
Period
s
Dir
22/11:30pm 15.4 SW 14 19 1019.2 - 0.0 - Cloudy 7 - - - -
22/11:00pm 15.5 SW 11 16 1018.5 - 0.0 - Cloudy 7 - - - -
22/10:30pm 15.8 WSW 11 15 1018.6 - 0.0 - Partly cloudy 8 - - - -
22/10:24pm 16.0 WSW 12 19 1018.7 - 0.0 - Partly cloudy 9 - - - -
22/10:00pm 16.7 WSW 13 19 1018.2 - 0.0 - Partly cloudy 10 - - - -
22/09:30pm 18.7 WSW 11 16 1017.5 - 0.0 - Partly cloudy 10 - - - -
22/09:00pm 22.8 SSW 5 13 1016.6 - 0.0 - Cloudy 10 - - - -
22/08:30pm 24.5 WSW 8 14 1015.6 - 0.0 - - 10 - - - -
22/08:00pm 26.9 N 5 7 1014.7 - 0.0 - - 10 - - - -
22/07:30pm 28.3 N 6 7 1014.3 - 0.0 - - 10 - - - -
22/07:00pm 29.3 N 9 11 1013.7 - 0.0 - - 10 - - - -
22/06:30pm 30.2 N 9 14 1013.7 - 0.0 - - 10 - - - -
22/06:00pm 30.9 N 11 14 1013.9 - 0.0 - Mostly cloudy 10 - - - -
22/05:30pm 31.1 N 10 13 1014.1 - 0.0 - - 10 - - - -
22/05:00pm 30.9 N 10 13 1014.1 - 0.0 - - 10 - - - -
22/04:30pm 31.5 N 10 13 1014.3 - 0.0 - - 10 - - - -
22/04:00pm 32.2 N 9 12 1014.5 - 0.0 - - 10 - - - -
22/03:30pm 32.9 N 9 14 1014.7 - 0.0 - - 10 - - - -
22/03:00pm 33.1 NNE 11 14 1015.1 - 0.0 - Mostly cloudy 10 - - - -
22/02:30pm 30.9 N 9 16 1015.6 - 0.0 - - 10 - - - -
22/02:00pm 31.4 N 12 16 1016.0 - 0.0 - - 10 - - - -
22/01:30pm 30.7 N 10 15 1016.4 - 0.0 - - 10 - - - -
22/01:00pm 29.8 N 12 17 1016.7 - 0.0 - - 10 - - - -
22/12:30pm 29.5 N 13 18 1017.1 - 0.0 - - 10 - - - -
22/12:00pm 28.5 N 16 22 1017.4 - 0.0 - - 10 - - - -

Other Formats:

Comma delimited format used in spreadsheet applications
http://www.bom.gov.au/fwo/IDV60701/IDV60701.94870.axf

JavaScript Object Notation format (JSON) in row-major order
http://www.bom.gov.au/fwo/IDV60701/IDV60701.94870.json